Time;durP1;ratioP1;P1;durP2;ratioP2;P2;SDS_P1;SDS_P2;PMS_P1;PMS_P2;Temp;Humidity;BMP_temperature;BMP_pressure;BME280_temperature;BME280_humidity;BME280_pressure;Samples;Min_cycle;Max_cycle;Signal;HPM_P1;HPM_P2
2023/05/18 00:02:00;;;;;;;6.10;5.05;;;7.90;99.90;;;;;;4938958;29;20296;-91
2023/05/18 00:04:27;;;;;;;7.30;5.10;;;7.80;99.90;;;;;;4940385;29;20193;-91
2023/05/18 00:06:55;;;;;;;5.55;4.65;;;8.10;99.90;;;;;;4953135;29;20222;-91
2023/05/18 00:09:28;;;;;;;6.18;4.30;;;7.90;99.90;;;;;;4953474;28;20197;-91
2023/05/18 00:11:54;;;;;;;7.60;4.68;;;7.60;99.90;;;;;;4935809;29;20209;-91
2023/05/18 00:14:20;;;;;;;4.85;4.40;;;8.20;99.90;;;;;;4935494;29;20223;-91
2023/05/18 00:16:47;;;;;;;7.15;4.63;;;7.70;99.90;;;;;;4932430;29;20192;-91
2023/05/18 00:19:13;;;;;;;6.68;5.35;;;7.80;99.90;;;;;;4938105;28;20192;-91
2023/05/18 00:21:40;;;;;;;6.00;4.85;;;8.00;99.90;;;;;;4957981;29;20240;-91
2023/05/18 00:24:07;;;;;;;5.10;4.50;;;7.50;99.90;;;;;;4955040;29;20204;-91
2023/05/18 00:26:32;;;;;;;6.25;5.57;;;7.70;99.90;;;;;;4937237;29;20201;-91
2023/05/18 00:28:58;;;;;;;6.43;5.23;;;7.70;99.90;;;;;;4937490;29;20236;-91
2023/05/18 00:31:23;;;;;;;6.10;5.10;;;8.00;99.90;;;;;;4937520;29;20712;-91
2023/05/18 00:33:49;;;;;;;6.30;4.70;;;7.90;99.90;;;;;;4936987;29;20188;-91
2023/05/18 00:36:14;;;;;;;7.13;4.27;;;7.60;99.90;;;;;;4930667;28;20182;-91
2023/05/18 00:38:40;;;;;;;7.23;4.90;;;7.70;99.90;;;;;;4936165;28;20181;-91
2023/05/18 00:41:05;;;;;;;6.53;4.50;;;7.60;99.90;;;;;;4937204;28;20186;-91
2023/05/18 00:43:31;;;;;;;6.67;5.00;;;7.50;99.90;;;;;;4937902;28;20204;-91
2023/05/18 00:45:56;;;;;;;6.37;5.30;;;7.50;99.90;;;;;;4934992;29;20564;-91
2023/05/18 00:48:22;;;;;;;5.03;4.53;;;7.80;99.90;;;;;;4935435;29;20196;-91
2023/05/18 00:50:47;;;;;;;5.00;4.47;;;7.50;99.90;;;;;;4953973;29;20212;-91
2023/05/18 00:53:13;;;;;;;5.27;4.77;;;7.70;99.90;;;;;;4959065;29;20219;-91
2023/05/18 00:55:38;;;;;;;5.83;5.00;;;7.70;99.90;;;;;;4938005;29;20188;-90
2023/05/18 00:58:04;;;;;;;6.07;4.97;;;7.10;99.90;;;;;;4935793;29;20651;-91
2023/05/18 01:00:30;;;;;;;6.47;5.33;;;7.40;99.90;;;;;;4935913;29;20609;-91
2023/05/18 01:02:56;;;;;;;6.10;4.80;;;7.20;99.90;;;;;;4935971;28;20217;-91
2023/05/18 01:05:22;;;;;;;6.40;5.40;;;7.30;99.90;;;;;;4932319;29;20240;-91
2023/05/18 01:07:49;;;;;;;5.63;4.90;;;7.40;99.90;;;;;;4936243;29;20268;-91
2023/05/18 01:10:17;;;;;;;5.68;4.90;;;7.20;99.90;;;;;;4931809;29;20205;-91
2023/05/18 01:13:04;;;;;;;6.40;5.68;;;7.40;99.90;;;;;;4938374;29;20249;-91
2023/05/18 01:15:35;;;;;;;7.70;5.60;;;7.20;99.90;;;;;;4934534;29;20181;-91
2023/05/18 01:18:21;;;;;;;6.20;5.07;;;7.60;99.90;;;;;;4956198;28;20697;-91
2023/05/18 01:21:20;;;;;;;7.63;5.18;;;7.30;99.90;;;;;;4934371;29;20193;-91
2023/05/18 01:24:07;;;;;;;6.47;5.03;;;7.20;99.90;;;;;;4930777;29;20221;-91
2023/05/18 01:26:36;;;;;;;6.90;5.47;;;7.20;99.90;;;;;;4933497;29;20221;-91
2023/05/18 01:29:05;;;;;;;10.05;5.30;;;7.10;99.90;;;;;;4933875;29;20276;-91
2023/05/18 01:31:31;;;;;;;6.50;4.93;;;7.30;99.90;;;;;;4936587;29;20220;-92
2023/05/18 01:33:57;;;;;;;6.70;5.22;;;7.40;99.90;;;;;;4937602;29;20234;-91
2023/05/18 01:36:22;;;;;;;5.73;5.13;;;7.30;99.90;;;;;;4933416;29;20197;-91
2023/05/18 01:38:49;;;;;;;6.73;5.10;;;7.40;99.90;;;;;;4940377;29;20190;-91
2023/05/18 01:41:25;;;;;;;7.95;5.50;;;7.20;99.90;;;;;;4957812;28;20177;-91
2023/05/18 01:43:50;;;;;;;5.68;4.90;;;7.10;99.90;;;;;;4971673;28;20189;-91
2023/05/18 01:46:42;;;;;;;5.17;4.50;;;7.30;99.90;;;;;;4951732;28;20248;-92
2023/05/18 01:49:16;;;;;;;6.78;5.20;;;7.00;99.90;;;;;;4937640;28;20192;-91
2023/05/18 01:51:45;;;;;;;5.85;4.82;;;7.20;99.90;;;;;;4937795;28;20235;-91
2023/05/18 01:54:14;;;;;;;8.70;5.03;;;6.90;99.90;;;;;;4935795;28;20666;-91
2023/05/18 01:56:41;;;;;;;8.35;5.40;;;7.30;99.90;;;;;;4946327;29;20188;-91
2023/05/18 01:59:07;;;;;;;6.00;5.00;;;7.10;99.90;;;;;;4960627;28;20602;-91
2023/05/18 02:01:32;;;;;;;7.15;5.32;;;7.20;99.90;;;;;;4961561;28;20205;-91
2023/05/18 02:03:58;;;;;;;6.77;5.40;;;6.80;99.90;;;;;;4941551;29;20189;-91
2023/05/18 02:06:23;;;;;;;6.73;5.27;;;7.00;99.90;;;;;;4935747;29;20193;-91
2023/05/18 02:08:50;;;;;;;5.63;5.00;;;7.10;99.90;;;;;;4938241;28;20189;-91
2023/05/18 02:11:15;;;;;;;5.00;4.50;;;6.90;99.90;;;;;;4938077;29;20233;-91
2023/05/18 02:13:41;;;;;;;8.33;4.93;;;7.20;99.90;;;;;;4956705;29;20230;-91
2023/05/18 02:16:06;;;;;;;6.53;5.67;;;7.30;99.90;;;;;;4960215;28;20169;-91
2023/05/18 02:18:33;;;;;;;6.77;5.20;;;6.70;99.90;;;;;;4960897;28;20185;-91
2023/05/18 02:20:59;;;;;;;6.93;4.95;;;6.70;99.90;;;;;;4959920;28;20177;-92
2023/05/18 02:23:25;;;;;;;7.63;5.35;;;6.80;99.90;;;;;;4960366;28;20181;-91
2023/05/18 02:25:54;;;;;;;7.07;5.65;;;7.20;99.90;;;;;;4955226;28;20181;-92
2023/05/18 02:28:22;;;;;;;6.40;5.47;;;6.90;99.90;;;;;;4957949;29;20174;-91
2023/05/18 02:30:48;;;;;;;8.77;6.28;;;7.40;99.90;;;;;;4959881;28;20224;-91
2023/05/18 02:33:14;;;;;;;7.37;5.47;;;;;;;;;;4964393;28;20190;-91
2023/05/18 02:35:40;;;;;;;6.50;5.47;;;;;;;;;;4959739;29;20204;-91
2023/05/18 02:38:08;;;;;;;6.50;5.20;;;6.60;99.90;;;;;;4960136;29;20165;-92
2023/05/18 02:40:33;;;;;;;7.20;5.60;;;6.20;99.90;;;;;;4962484;29;20208;-91
2023/05/18 02:42:59;;;;;;;6.30;5.70;;;6.90;99.90;;;;;;4958911;28;20189;-92
2023/05/18 02:45:25;;;;;;;8.10;5.43;;;;;;;;;;4959849;29;20185;-91
2023/05/18 02:47:50;;;;;;;8.20;6.32;;;6.50;99.90;;;;;;4961364;29;20181;-91
2023/05/18 02:50:16;;;;;;;6.20;5.60;;;;;;;;;;4960093;28;20224;-91
2023/05/18 02:52:44;;;;;;;7.20;5.30;;;6.60;99.90;;;;;;4940727;28;20240;-91
2023/05/18 02:55:12;;;;;;;7.95;5.90;;;;;;;;;;4956385;29;20173;-90
2023/05/18 02:57:38;;;;;;;6.00;5.28;;;;;;;;;;4956037;28;20188;-91
2023/05/18 03:00:10;;;;;;;8.88;5.95;;;6.40;99.90;;;;;;4957177;28;20189;-91
2023/05/18 03:02:37;;;;;;;9.80;6.20;;;6.50;99.90;;;;;;4958687;28;20208;-91
2023/05/18 03:05:04;;;;;;;7.75;5.95;;;;;;;;;;4960247;28;20196;-91
2023/05/18 03:07:31;;;;;;;5.55;5.05;;;6.50;99.90;;;;;;4959071;29;20200;-91
2023/05/18 03:09:57;;;;;;;9.52;6.30;;;8.10;99.90;;;;;;4957277;28;20209;-91
2023/05/18 03:12:23;;;;;;;6.87;6.13;;;;;;;;;;4961222;28;20231;-91
2023/05/18 03:14:49;;;;;;;8.20;6.50;;;;;;;;;;4959384;29;20181;-91
2023/05/18 03:17:15;;;;;;;7.75;5.75;;;6.30;99.90;;;;;;4958347;29;20463;-91
2023/05/18 03:19:41;;;;;;;7.50;5.43;;;;;;;;;;4949451;29;20280;-91
2023/05/18 03:22:06;;;;;;;6.90;5.57;;;6.50;99.90;;;;;;4946858;29;20204;-92
2023/05/18 03:24:38;;;;;;;8.10;6.10;;;5.80;99.90;;;;;;4938041;28;20184;-91
2023/05/18 03:27:07;;;;;;;8.30;5.85;;;5.40;99.90;;;;;;4939362;29;20276;-91
2023/05/18 03:29:35;;;;;;;8.65;6.75;;;6.20;99.90;;;;;;4937281;29;20192;-91
2023/05/18 03:32:01;;;;;;;10.57;6.25;;;;;;;;;;4937293;29;20215;-92
2023/05/18 03:34:27;;;;;;;6.67;5.80;;;;;;;;;;4939676;29;20184;-92
2023/05/18 03:36:53;;;;;;;9.63;6.03;;;6.20;99.90;;;;;;4935887;29;20592;-91
2023/05/18 03:39:20;;;;;;;8.90;5.90;;;;;;;;;;4937862;29;20457;-91
2023/05/18 03:41:46;;;;;;;7.45;6.35;;;6.30;99.90;;;;;;4936824;28;20204;-91
2023/05/18 03:44:12;;;;;;;9.50;6.77;;;;;;;;;;4936844;28;20863;-91
2023/05/18 03:46:37;;;;;;;7.70;6.30;;;6.30;99.90;;;;;;4935246;29;20197;-91
2023/05/18 03:49:04;;;;;;;10.47;8.13;;;;;;;;;;4936716;29;20447;-91
2023/05/18 03:51:30;;;;;;;7.25;6.43;;;;;;;;;;4936138;29;20228;-91
2023/05/18 03:53:56;;;;;;;9.50;6.30;;;6.30;99.90;;;;;;4937701;29;20686;-91
2023/05/18 03:56:22;;;;;;;7.10;6.40;;;7.90;99.90;;;;;;4938423;29;20202;-91
2023/05/18 03:58:47;;;;;;;7.43;5.63;;;5.70;99.90;;;;;;4939034;29;20189;-91
2023/05/18 04:01:13;;;;;;;8.80;6.53;;;6.40;99.90;;;;;;4938959;28;20535;-91
2023/05/18 04:03:39;;;;;;;6.87;5.77;;;6.00;99.90;;;;;;4939741;28;20193;-91
2023/05/18 04:06:05;;;;;;;7.93;6.10;;;6.40;99.90;;;;;;4937564;28;20196;-91
2023/05/18 04:08:33;;;;;;;8.68;7.53;;;6.30;99.90;;;;;;4931903;29;20196;-92
2023/05/18 04:11:00;;;;;;;6.60;5.95;;;6.20;99.90;;;;;;4938641;28;20271;-92
2023/05/18 04:13:25;;;;;;;7.38;6.38;;;6.30;99.90;;;;;;4950901;29;20204;-91
2023/05/18 04:15:51;;;;;;;9.00;6.30;;;6.00;99.90;;;;;;4943890;28;20191;-91
2023/05/18 04:18:17;;;;;;;5.83;5.20;;;6.30;99.90;;;;;;4950382;29;20463;-91
2023/05/18 04:20:44;;;;;;;7.23;6.53;;;6.50;99.90;;;;;;4933525;29;20276;-92
2023/05/18 04:23:11;;;;;;;7.65;5.65;;;6.20;99.90;;;;;;4934924;29;20673;-91
2023/05/18 04:25:38;;;;;;;9.18;5.95;;;6.30;99.90;;;;;;4933110;29;20189;-92
2023/05/18 04:28:04;;;;;;;7.10;6.13;;;6.90;99.90;;;;;;4934302;29;20197;-91
2023/05/18 04:30:29;;;;;;;7.85;6.57;;;6.40;99.90;;;;;;4934214;29;20633;-91
2023/05/18 04:32:57;;;;;;;7.00;6.00;;;6.40;99.90;;;;;;4936961;29;20303;-91
2023/05/18 04:35:24;;;;;;;9.60;7.13;;;6.30;99.90;;;;;;4938971;29;20328;-91
2023/05/18 04:37:50;;;;;;;9.07;6.95;;;6.30;99.90;;;;;;4930363;29;20201;-91
2023/05/18 04:40:16;;;;;;;8.43;6.63;;;6.70;99.90;;;;;;4937400;29;20279;-91
2023/05/18 04:42:46;;;;;;;9.03;7.70;;;6.60;99.90;;;;;;4937052;29;20216;-91
2023/05/18 04:45:21;;;;;;;10.38;6.85;;;7.00;99.90;;;;;;4937459;28;20547;-91
2023/05/18 04:47:52;;;;;;;8.75;6.90;;;7.30;99.90;;;;;;4948559;29;20184;-92
2023/05/18 04:50:18;;;;;;;16.63;6.70;;;7.10;99.90;;;;;;4935830;29;20209;-92
2023/05/18 04:52:47;;;;;;;7.65;6.88;;;7.40;99.90;;;;;;4937092;29;20304;-92
2023/05/18 04:55:14;;;;;;;8.43;7.03;;;7.30;99.90;;;;;;4945025;28;20185;-93
2023/05/18 04:57:41;;;;;;;9.02;7.05;;;7.70;99.90;;;;;;4940558;29;20192;-93
2023/05/18 05:00:08;;;;;;;7.85;6.57;;;8.00;99.90;;;;;;4935109;29;20186;-92
2023/05/18 05:02:34;;;;;;;6.80;6.10;;;8.00;99.90;;;;;;4937148;29;20231;-93
2023/05/18 05:04:59;;;;;;;7.67;6.90;;;8.10;99.90;;;;;;4937221;29;20651;-92
2023/05/18 05:07:27;;;;;;;9.70;7.13;;;8.50;99.90;;;;;;4939290;29;20332;-92
2023/05/18 05:09:52;;;;;;;9.55;5.60;;;8.40;99.90;;;;;;4940238;29;20268;-93
2023/05/18 05:12:18;;;;;;;8.20;6.57;;;8.40;99.90;;;;;;4937699;28;20204;-93
2023/05/18 05:14:43;;;;;;;9.70;6.57;;;9.10;99.90;;;;;;4940596;28;20282;-93
2023/05/18 05:17:09;;;;;;;8.77;6.53;;;9.20;99.90;;;;;;4938837;29;20268;-93
2023/05/18 05:19:34;;;;;;;8.40;7.60;;;8.70;99.90;;;;;;4955687;28;20189;-93
2023/05/18 05:22:00;;;;;;;9.10;6.80;;;9.10;99.90;;;;;;4960928;29;20221;-93
2023/05/18 05:24:25;;;;;;;8.77;7.13;;;9.00;99.90;;;;;;4950748;29;20204;-93
2023/05/18 05:26:51;;;;;;;7.83;6.70;;;9.50;99.90;;;;;;4947379;29;20197;-93
2023/05/18 05:29:19;;;;;;;7.40;6.70;;;10.00;99.90;;;;;;4947012;28;20185;-93
2023/05/18 05:31:44;;;;;;;8.60;7.43;;;9.50;99.90;;;;;;4935054;29;21083;-93
2023/05/18 05:34:10;;;;;;;10.73;6.50;;;10.40;99.90;;;;;;4934687;29;20277;-93
2023/05/18 05:36:37;;;;;;;6.75;5.13;;;9.40;99.90;;;;;;4937033;29;20208;-93
2023/05/18 05:39:03;;;;;;;11.82;5.28;;;10.50;99.90;;;;;;4938089;29;20221;-93
2023/05/18 05:41:29;;;;;;;9.65;5.28;;;9.20;99.90;;;;;;4937960;29;20221;-92
2023/05/18 05:43:55;;;;;;;11.97;5.53;;;;;;;;;;4949198;28;20195;-93
2023/05/18 05:46:21;;;;;;;5.57;4.88;;;9.60;99.90;;;;;;4955524;29;20187;-93
2023/05/18 05:48:47;;;;;;;7.87;5.80;;;9.70;99.90;;;;;;4959002;28;20178;-93
2023/05/18 05:51:13;;;;;;;7.90;5.40;;;;;;;;;;4945326;28;20218;-93
2023/05/18 05:53:39;;;;;;;7.20;4.82;;;;;;;;;;4935253;29;20672;-93
2023/05/18 05:56:07;;;;;;;6.50;5.35;;;9.70;99.90;;;;;;4939892;29;20563;-93
2023/05/18 05:58:38;;;;;;;5.40;4.45;;;10.50;99.90;;;;;;4938076;28;20276;-93
2023/05/18 06:01:03;;;;;;;7.47;4.63;;;10.20;99.90;;;;;;4953763;28;20199;-91
2023/05/18 06:04:09;;;;;;;6.53;4.40;;;10.10;99.90;;;;;;4936472;29;20192;-91
2023/05/18 06:06:38;;;;;;;5.10;4.15;;;10.20;99.10;;;;;;4886902;29;20243;-90
2023/05/18 06:12:28;;;;;;;6.38;4.40;;;11.30;99.90;;;;;;4926045;23;20238;-70
2023/05/18 06:14:56;;;;;;;10.27;5.30;;;10.30;99.90;;;;;;4950687;28;20188;-69
2023/05/18 06:17:25;;;;;;;5.65;4.25;;;10.50;99.20;;;;;;4947093;29;20446;-70
2023/05/18 06:19:51;;;;;;;8.30;5.03;;;10.60;98.90;;;;;;4933083;29;20230;-70
2023/05/18 06:22:17;;;;;;;7.00;3.90;;;10.30;98.90;;;;;;4928325;28;20748;-70
2023/05/18 06:24:43;;;;;;;7.38;4.30;;;10.50;98.70;;;;;;4949522;29;20478;-68
2023/05/18 06:27:08;;;;;;;6.83;4.90;;;10.90;99.10;;;;;;4934540;29;20220;-68
2023/05/18 06:29:34;;;;;;;6.63;5.30;;;10.60;99.00;;;;;;4946977;28;20206;-70
2023/05/18 06:32:00;;;;;;;6.70;4.37;;;10.60;98.90;;;;;;4944162;28;20206;-67
2023/05/18 06:34:26;;;;;;;5.05;4.13;;;11.00;98.00;;;;;;4945300;28;20198;-67
2023/05/18 06:36:51;;;;;;;6.03;4.30;;;11.10;98.20;;;;;;4943025;28;20519;-71
2023/05/18 06:39:17;;;;;;;5.43;4.67;;;11.20;98.20;;;;;;4932869;29;20918;-68
2023/05/18 06:41:44;;;;;;;9.53;5.70;;;11.30;98.00;;;;;;4948731;28;20216;-70
2023/05/18 06:44:10;;;;;;;4.88;4.47;;;11.50;97.80;;;;;;4933536;29;20270;-69
2023/05/18 06:46:36;;;;;;;7.77;4.07;;;11.80;97.10;;;;;;4947694;28;20196;-69
2023/05/18 06:49:02;;;;;;;4.83;4.10;;;12.40;96.30;;;;;;4949522;29;20448;-70
2023/05/18 06:51:27;;;;;;;9.97;4.67;;;12.40;95.30;;;;;;4947011;28;20483;-70
2023/05/18 06:53:53;;;;;;;8.20;4.40;;;12.40;95.30;;;;;;4949052;29;20905;-73
2023/05/18 06:56:18;;;;;;;5.93;4.80;;;12.60;95.40;;;;;;4940692;29;20255;-73
2023/05/18 06:58:44;;;;;;;9.60;4.47;;;12.70;95.30;;;;;;4945813;29;20212;-73
2023/05/18 07:01:10;;;;;;;5.80;4.40;;;12.80;94.70;;;;;;4929418;29;20756;-74
2023/05/18 07:03:36;;;;;;;7.10;4.23;;;14.20;94.10;;;;;;4947183;29;20239;-75
2023/05/18 07:06:03;;;;;;;6.47;3.92;;;15.00;91.70;;;;;;4943971;28;20381;-74
2023/05/18 07:08:29;;;;;;;5.85;4.10;;;16.70;89.20;;;;;;4940704;28;20220;-74
2023/05/18 07:10:56;;;;;;;9.27;4.45;;;19.40;78.50;;;;;;4924827;29;20217;-75
2023/05/18 07:13:23;;;;;;;7.43;4.13;;;20.20;71.50;;;;;;4947490;29;20196;-74
2023/05/18 07:15:48;;;;;;;5.82;4.05;;;19.80;67.30;;;;;;4927552;29;20212;-74
2023/05/18 07:18:14;;;;;;;5.00;3.97;;;20.00;67.30;;;;;;4943306;28;20800;-75
2023/05/18 07:20:40;;;;;;;4.50;3.47;;;21.20;63.60;;;;;;4950855;28;20224;-73
2023/05/18 07:23:05;;;;;;;8.20;3.90;;;21.70;61.10;;;;;;4932174;28;20193;-72
2023/05/18 07:25:31;;;;;;;4.13;3.73;;;21.40;60.30;;;;;;4949111;28;20201;-70
2023/05/18 07:27:56;;;;;;;5.00;3.60;;;21.70;58.60;;;;;;4946774;29;20255;-71
2023/05/18 07:30:23;;;;;;;5.07;3.83;;;20.80;60.00;;;;;;4946704;28;20590;-71
2023/05/18 07:32:50;;;;;;;5.13;3.80;;;22.30;59.80;;;;;;4932230;29;20189;-70
2023/05/18 07:35:18;;;;;;;4.80;3.60;;;23.00;57.60;;;;;;4930754;28;20507;-70
2023/05/18 07:37:43;;;;;;;5.93;3.67;;;23.70;56.50;;;;;;4946050;28;20448;-71
2023/05/18 07:40:10;;;;;;;4.33;3.27;;;25.60;54.70;;;;;;4946904;28;20507;-71
2023/05/18 07:42:38;;;;;;;6.53;4.00;;;27.90;49.90;;;;;;4950233;28;20557;-72
2023/05/18 07:45:05;;;;;;;4.87;3.60;;;27.20;47.80;;;;;;4946728;28;20461;-70
2023/05/18 07:47:31;;;;;;;5.77;4.03;;;28.50;47.00;;;;;;4944238;28;20456;-70
2023/05/18 07:49:56;;;;;;;6.70;4.03;;;25.90;47.50;;;;;;4946022;28;20465;-70
2023/05/18 07:52:22;;;;;;;5.20;4.20;;;26.40;47.80;;;;;;4930202;29;20220;-70
2023/05/18 07:54:47;;;;;;;5.03;3.70;;;27.20;46.80;;;;;;4947252;29;20210;-71
2023/05/18 07:57:13;;;;;;;5.00;3.77;;;27.20;45.90;;;;;;4944978;29;20213;-70
2023/05/18 07:59:39;;;;;;;6.00;3.90;;;28.30;44.30;;;;;;4946204;29;20191;-70
2023/05/18 08:02:05;;;;;;;4.47;3.87;;;26.10;45.80;;;;;;4946768;28;20218;-72
2023/05/18 08:04:31;;;;;;;5.00;3.67;;;27.10;45.90;;;;;;4947780;29;20263;-71
2023/05/18 08:06:59;;;;;;;6.80;4.10;;;28.10;44.00;;;;;;4940240;28;21407;-70
2023/05/18 08:09:28;;;;;;;10.70;4.33;;;26.70;44.50;;;;;;4946463;29;20194;-70
2023/05/18 08:11:54;;;;;;;6.43;4.00;;;26.20;45.80;;;;;;4947867;28;20480;-71
2023/05/18 08:14:20;;;;;;;6.37;4.07;;;26.50;45.30;;;;;;4953062;28;20453;-70
2023/05/18 08:16:46;;;;;;;4.90;4.27;;;26.60;45.00;;;;;;4947682;28;20188;-71
2023/05/18 08:19:11;;;;;;;5.47;3.77;;;28.10;44.10;;;;;;4947802;29;20849;-71
2023/05/18 08:21:37;;;;;;;4.60;3.70;;;28.40;42.70;;;;;;4930971;29;20213;-71
2023/05/18 08:24:03;;;;;;;4.20;3.47;;;27.70;42.50;;;;;;4936856;29;20201;-71
2023/05/18 08:26:29;;;;;;;4.47;3.60;;;27.80;43.60;;;;;;4950047;29;20208;-71
2023/05/18 08:28:55;;;;;;;6.93;4.20;;;27.90;42.60;;;;;;4948952;28;20453;-71
2023/05/18 08:31:20;;;;;;;5.17;4.20;;;28.10;42.60;;;;;;4932590;29;20503;-71
2023/05/18 08:33:47;;;;;;;4.20;3.70;;;28.60;42.50;;;;;;4950322;29;20195;-72
2023/05/18 08:36:12;;;;;;;6.10;3.90;;;29.30;40.90;;;;;;4945152;28;20449;-71
2023/05/18 08:38:38;;;;;;;4.97;4.13;;;29.00;39.70;;;;;;4947336;28;20519;-71
2023/05/18 08:41:15;;;;;;;5.33;4.33;;;28.20;40.90;;;;;;4940325;28;20557;-71
2023/05/18 08:43:44;;;;;;;5.43;3.50;;;27.70;41.40;;;;;;4949364;29;20243;-71
2023/05/18 08:46:18;;;;;;;5.33;3.37;;;27.90;40.80;;;;;;4948067;28;20445;-71
2023/05/18 08:48:45;;;;;;;4.33;3.50;;;28.30;41.10;;;;;;4950930;28;20461;-71
2023/05/18 08:51:13;;;;;;;6.27;3.53;;;28.50;40.70;;;;;;4944020;28;20485;-72
2023/05/18 08:53:39;;;;;;;5.00;3.93;;;29.50;39.60;;;;;;4949777;29;20453;-72
2023/05/18 08:56:05;;;;;;;4.23;3.20;;;30.40;38.30;;;;;;4950911;29;20925;-71
2023/05/18 08:58:35;;;;;;;6.53;3.80;;;30.00;36.90;;;;;;4951099;28;20456;-71
2023/05/18 09:01:02;;;;;;;5.60;3.43;;;29.90;38.00;;;;;;4950404;28;20552;-71
2023/05/18 09:03:28;;;;;;;7.30;3.47;;;29.60;37.00;;;;;;4948776;29;20450;-71
2023/05/18 09:05:55;;;;;;;4.13;3.73;;;30.00;36.90;;;;;;4945722;28;20971;-71
2023/05/18 09:08:22;;;;;;;4.30;3.90;;;29.50;37.10;;;;;;4940519;28;20557;-71
2023/05/18 09:10:49;;;;;;;4.10;3.53;;;29.00;38.10;;;;;;4941630;28;20475;-71
2023/05/18 09:13:19;;;;;;;5.70;3.70;;;29.10;36.90;;;;;;4949381;28;20505;-72
2023/05/18 09:15:45;;;;;;;7.57;3.40;;;29.90;36.30;;;;;;4945950;28;20502;-71
2023/05/18 09:18:11;;;;;;;6.17;3.67;;;29.30;37.10;;;;;;4949813;29;20964;-71
2023/05/18 09:20:36;;;;;;;6.77;4.00;;;27.60;37.60;;;;;;4933038;29;20219;-71
2023/05/18 09:23:02;;;;;;;5.43;3.50;;;27.60;38.40;;;;;;4928482;29;20196;-71
2023/05/18 09:25:33;;;;;;;5.60;3.43;;;27.80;37.70;;;;;;4943445;28;20278;-71
2023/05/18 09:28:00;;;;;;;6.23;3.20;;;27.40;38.00;;;;;;4949995;29;20194;-71
2023/05/18 09:30:25;;;;;;;6.27;3.80;;;27.10;39.30;;;;;;4945602;28;20516;-70
2023/05/18 09:32:52;;;;;;;4.60;3.80;;;26.10;39.90;;;;;;4947271;28;20450;-70
2023/05/18 09:35:17;;;;;;;6.37;4.40;;;25.90;40.00;;;;;;4945873;28;20188;-70
2023/05/18 09:37:43;;;;;;;4.63;3.40;;;26.00;39.90;;;;;;4944742;28;20446;-70
2023/05/18 09:40:09;;;;;;;6.63;3.97;;;26.80;39.00;;;;;;4929756;28;20198;-70
2023/05/18 09:42:35;;;;;;;5.50;3.87;;;25.60;39.60;;;;;;4947502;28;20291;-70
2023/05/18 09:45:02;;;;;;;5.40;3.20;;;25.90;40.40;;;;;;4927765;28;20448;-71
2023/05/18 09:47:27;;;;;;;5.17;3.97;;;25.80;40.10;;;;;;4931743;29;20440;-71
2023/05/18 09:49:55;;;;;;;5.23;3.60;;;26.30;40.50;;;;;;4943426;28;20479;-71
2023/05/18 09:52:21;;;;;;;4.80;3.60;;;25.90;39.70;;;;;;4945587;28;20666;-71
2023/05/18 09:54:59;;;;;;;5.23;3.80;;;26.40;40.60;;;;;;4947804;28;20440;-71
2023/05/18 09:57:25;;;;;;;5.00;3.83;;;26.20;40.40;;;;;;4947444;29;20220;-71
2023/05/18 10:00:09;;;;;;;5.20;3.33;;;25.90;39.70;;;;;;4927936;29;20612;-71
2023/05/18 10:02:51;;;;;;;6.17;3.30;;;25.20;40.50;;;;;;4948284;29;20183;-71
2023/05/18 10:05:26;;;;;;;5.83;3.30;;;24.20;42.00;;;;;;4948283;29;20496;-70
2023/05/18 10:07:52;;;;;;;4.20;3.40;;;24.90;42.60;;;;;;4937699;28;20967;-71
2023/05/18 10:10:19;;;;;;;4.27;3.53;;;25.20;41.40;;;;;;4943004;29;20464;-71
2023/05/18 10:12:45;;;;;;;6.07;3.80;;;25.00;40.90;;;;;;4946768;28;20509;-70
2023/05/18 10:15:16;;;;;;;4.80;3.80;;;24.20;41.00;;;;;;4946603;28;20449;-70
2023/05/18 10:17:43;;;;;;;5.63;4.00;;;24.30;43.00;;;;;;4944664;28;20818;-69
2023/05/18 10:20:09;;;;;;;5.27;3.37;;;23.20;43.00;;;;;;4927804;28;20483;-74
2023/05/18 10:22:36;;;;;;;3.90;3.10;;;22.60;43.80;;;;;;4923996;29;20454;-74
2023/05/18 10:25:05;;;;;;;4.03;3.43;;;21.70;45.00;;;;;;4926681;29;20447;-74
2023/05/18 10:27:34;;;;;;;4.10;3.72;;;21.20;45.80;;;;;;4943213;28;20453;-70
2023/05/18 10:30:07;;;;;;;4.90;3.45;;;21.10;46.50;;;;;;4939813;28;20197;-70
2023/05/18 10:32:35;;;;;;;4.80;3.72;;;21.00;47.10;;;;;;4933764;29;20348;-71
2023/05/18 10:35:04;;;;;;;7.05;4.28;;;20.70;47.70;;;;;;4947308;28;20354;-71
2023/05/18 10:37:32;;;;;;;8.00;3.95;;;20.50;47.50;;;;;;4943288;28;20177;-71
2023/05/18 10:40:00;;;;;;;4.40;3.30;;;20.40;48.00;;;;;;4942724;29;20305;-72
2023/05/18 10:42:26;;;;;;;4.78;3.58;;;20.40;48.70;;;;;;4945188;28;20213;-71
2023/05/18 10:44:53;;;;;;;5.93;4.63;;;20.30;48.70;;;;;;4930665;29;20303;-71
2023/05/18 10:47:19;;;;;;;5.30;3.67;;;20.40;49.70;;;;;;4943547;28;20216;-71
2023/05/18 10:49:48;;;;;;;3.85;3.42;;;20.30;48.70;;;;;;4944639;29;20208;-71
2023/05/18 10:52:16;;;;;;;5.70;3.35;;;20.30;48.70;;;;;;4929172;29;20197;-72
2023/05/18 11:18:12;;;;;;;5.90;3.40;;;25.60;39.80;;;;;;5224498;23;20534;-88
2023/05/18 11:20:38;;;;;;;4.43;3.47;;;26.00;42.30;;;;;;4937709;28;20450;-88
2023/05/18 11:23:05;;;;;;;5.33;3.30;;;26.20;41.50;;;;;;4933536;29;20475;-88
2023/05/18 11:25:37;;;;;;;5.77;3.50;;;26.30;41.60;;;;;;4936633;28;20204;-88
2023/05/18 11:28:15;;;;;;;7.37;3.67;;;25.80;39.40;;;;;;4948723;29;20605;-89
2023/05/18 11:30:47;;;;;;;4.87;2.90;;;26.80;40.80;;;;;;4934107;29;20523;-88
2023/05/18 11:33:20;;;;;;;3.10;2.80;;;28.20;39.90;;;;;;4929412;29;20939;-87
2023/05/18 11:36:05;;;;;;;5.40;3.13;;;26.40;38.20;;;;;;4945793;29;20879;-87
2023/05/18 11:38:50;;;;;;;7.60;3.50;;;27.50;40.50;;;;;;4942540;28;20452;-87
2023/05/18 11:41:29;;;;;;;4.80;3.33;;;23.40;41.70;;;;;;4934110;28;20454;-87
2023/05/18 11:44:26;;;;;;;5.03;2.90;;;25.70;42.60;;;;;;4929722;28;21055;-87
2023/05/18 11:47:00;;;;;;;3.60;2.77;;;24.40;42.20;;;;;;4947053;28;20816;-88
2023/05/18 11:49:37;;;;;;;6.17;3.40;;;26.00;42.80;;;;;;4941469;29;20448;-87
2023/05/18 11:52:04;;;;;;;7.53;3.63;;;24.10;43.20;;;;;;4938979;29;20495;-89
2023/05/18 11:54:42;;;;;;;5.60;3.20;;;23.00;45.70;;;;;;4951299;29;20436;-89
2023/05/18 11:57:08;;;;;;;4.80;2.80;;;24.40;46.00;;;;;;4929599;29;20499;-87
2023/05/18 11:59:38;;;;;;;6.23;3.67;;;21.60;45.20;;;;;;4932874;29;20901;-88
2023/05/18 12:02:04;;;;;;;4.73;2.97;;;23.60;48.20;;;;;;4936117;29;20461;-87
2023/05/18 12:04:33;;;;;;;3.50;3.20;;;21.60;47.70;;;;;;4937276;29;20440;-87
2023/05/18 12:07:03;;;;;;;4.17;2.97;;;24.10;48.60;;;;;;4933685;29;20446;-87
2023/05/18 12:09:30;;;;;;;4.47;3.27;;;22.90;47.70;;;;;;4938677;29;20443;-87
2023/05/18 12:11:56;;;;;;;7.73;3.77;;;23.20;49.60;;;;;;4939462;29;20566;-87
2023/05/18 12:14:26;;;;;;;5.43;3.53;;;21.70;47.60;;;;;;4937904;29;20531;-88
2023/05/18 12:16:55;;;;;;;3.42;3.10;;;23.30;47.70;;;;;;4943371;29;20721;-88
2023/05/18 12:19:23;;;;;;;3.88;3.10;;;23.20;48.00;;;;;;4930054;29;20184;-88
2023/05/18 12:21:49;;;;;;;6.45;3.45;;;22.30;48.60;;;;;;4932944;29;20215;-88
2023/05/18 12:24:15;;;;;;;7.13;3.40;;;22.40;50.90;;;;;;4934927;28;20185;-88
2023/05/18 12:27:08;;;;;;;4.10;2.95;;;22.00;49.50;;;;;;4950905;29;20196;-88
2023/05/18 12:29:38;;;;;;;4.60;3.20;;;20.40;47.60;;;;;;4930775;29;20196;-87
2023/05/18 12:35:27;;;;;;;5.80;3.08;;;20.60;47.80;;;;;;4948414;28;20434;-87
2023/05/18 12:41:26;;;;;;;5.45;3.03;;;20.10;48.60;;;;;;4885432;28;20220;-87
2023/05/18 12:43:54;;;;;;;3.40;2.60;;;19.80;50.40;;;;;;4935843;29;20196;-88
2023/05/18 12:46:22;;;;;;;3.78;3.15;;;19.70;50.50;;;;;;4939434;28;20185;-88
2023/05/18 12:48:56;;;;;;;8.90;2.97;;;19.40;48.50;;;;;;4939938;28;20303;-88
2023/05/18 12:51:21;;;;;;;6.25;3.40;;;22.10;51.80;;;;;;4932734;28;20329;-87
2023/05/18 12:53:50;;;;;;;4.40;3.03;;;19.90;51.00;;;;;;4939916;28;20196;-87
2023/05/18 12:56:17;;;;;;;7.78;3.55;;;21.90;51.60;;;;;;4938084;28;20203;-87
2023/05/18 12:58:56;;;;;;;5.55;2.72;;;21.80;49.90;;;;;;4938577;28;20224;-86
2023/05/18 13:01:23;;;;;;;3.53;2.95;;;21.40;49.70;;;;;;4932871;28;20234;-87
2023/05/18 13:03:54;;;;;;;3.38;2.60;;;22.00;51.20;;;;;;4935075;28;20185;-87
2023/05/18 13:06:23;;;;;;;5.97;2.70;;;22.60;50.90;;;;;;4933374;28;20252;-88
2023/05/18 13:08:52;;;;;;;3.45;2.70;;;19.20;50.00;;;;;;4933310;29;20189;-88
2023/05/18 13:11:17;;;;;;;5.32;2.97;;;19.90;50.20;;;;;;4934211;28;20209;-88
2023/05/18 13:14:02;;;;;;;4.10;2.30;;;20.00;53.60;;;;;;4933943;28;20185;-88
2023/05/18 13:16:28;;;;;;;4.90;3.15;;;22.70;53.00;;;;;;4938240;28;20180;-88
2023/05/18 13:18:56;;;;;;;3.40;3.03;;;19.50;49.50;;;;;;4932980;29;20188;-88
2023/05/18 13:21:22;;;;;;;3.97;2.70;;;20.60;49.90;;;;;;4932519;29;20217;-88
2023/05/18 13:23:47;;;;;;;5.50;2.97;;;22.00;52.10;;;;;;4942762;29;20856;-88
2023/05/18 13:26:13;;;;;;;4.80;3.07;;;22.40;53.10;;;;;;4944309;29;20220;-88
2023/05/18 13:28:40;;;;;;;5.38;3.25;;;20.50;51.80;;;;;;4939573;29;20197;-88
2023/05/18 13:31:05;;;;;;;3.72;2.53;;;20.10;50.80;;;;;;4934901;28;20211;-88
2023/05/18 13:33:31;;;;;;;3.93;2.50;;;22.50;52.70;;;;;;4933213;29;20189;-87
2023/05/18 13:35:57;;;;;;;3.33;2.97;;;21.60;50.50;;;;;;4935962;28;20187;-88